Time;durP1;ratioP1;P1;durP2;ratioP2;P2;SDS_P1;SDS_P2;PMS_P1;PMS_P2;Temp;Humidity;BMP_temperature;BMP_pressure;BME280_temperature;BME280_humidity;BME280_pressure;Samples;Min_cycle;Max_cycle;Signal;HPM_P1;HPM_P2
2023/12/12 00:00:30;;;;;;;40.08;17.15;;;;;;;-144.73;100.00;54736.13;4974936;28;20037;-76
2023/12/12 00:02:57;;;;;;;50.85;18.33;;;;;;;-144.73;100.00;54752.53;4981109;28;20118;-77
2023/12/12 00:05:22;;;;;;;42.03;17.02;;;;;;;-144.73;100.00;54725.84;4979821;28;20034;-76
2023/12/12 00:07:47;;;;;;;53.17;19.90;;;;;;;-144.73;100.00;54736.13;4973606;28;20050;-76
2023/12/12 00:10:13;;;;;;;65.07;22.90;;;;;;;-144.73;100.00;54723.81;4979987;28;20033;-77
2023/12/12 00:12:38;;;;;;;73.43;25.92;;;;;;;-144.73;100.00;54732.00;4982079;28;20552;-77
2023/12/12 00:15:07;;;;;;;103.10;29.70;;;;;;;-144.73;100.00;54760.75;4979304;28;20059;-76
2023/12/12 00:17:40;;;;;;;89.75;28.05;;;;;;;-144.73;100.00;54727.91;4974635;28;20105;-76
2023/12/12 00:20:09;;;;;;;87.43;28.42;;;;;;;-144.73;100.00;54746.38;4983601;28;20026;-76
2023/12/12 00:22:35;;;;;;;101.60;29.45;;;;;;;-144.73;100.00;54760.75;4977128;28;20235;-76
2023/12/12 00:25:01;;;;;;;89.97;29.27;;;;;;;-144.73;100.00;54738.16;4976562;28;20030;-75
2023/12/12 00:27:26;;;;;;;88.30;28.58;;;;;;;-144.73;100.00;54756.66;4985240;28;20073;-75
2023/12/12 00:29:52;;;;;;;82.28;27.67;;;;;;;-144.73;100.00;54719.69;4988564;28;20035;-75
2023/12/12 00:32:17;;;;;;;71.97;25.33;;;;;;;-144.73;100.00;54736.13;4976706;28;20094;-76
2023/12/12 00:34:42;;;;;;;80.82;26.95;;;;;;;-144.73;100.00;54695.06;4976798;28;20544;-76
2023/12/12 00:37:09;;;;;;;89.50;26.92;;;;;;;-144.73;100.00;54709.44;4981623;28;20034;-75
2023/12/12 00:39:38;;;;;;;84.88;27.98;;;;;;;-144.73;100.00;54711.47;4980270;28;20056;-75
2023/12/12 00:42:04;;;;;;;97.95;29.70;;;;;;;-144.73;100.00;54719.69;4978087;28;20034;-76
2023/12/12 00:44:29;;;;;;;101.82;31.60;;;;;;;-144.73;100.00;54723.81;4977961;28;20033;-75
2023/12/12 00:46:55;;;;;;;104.75;30.25;;;;;;;-144.73;100.00;54752.53;4972128;28;20042;-75
2023/12/12 00:49:20;;;;;;;94.07;31.00;;;;;;;-144.73;100.00;54723.81;4970509;28;20030;-75
2023/12/12 00:51:45;;;;;;;96.57;30.35;;;;;;;-144.73;100.00;54727.91;4979107;28;20027;-75
2023/12/12 00:54:11;;;;;;;99.50;29.85;;;;;;;-144.73;100.00;54732.00;4976166;28;20116;-76
2023/12/12 00:56:37;;;;;;;87.93;29.85;;;;;;;-144.73;100.00;54719.69;4981952;28;20030;-76
2023/12/12 00:59:04;;;;;;;106.05;32.10;;;;;;;-144.73;100.00;54707.38;4973882;28;20027;-75
2023/12/12 01:01:30;;;;;;;120.72;34.28;;;;;;;-144.73;100.00;54752.53;4981057;28;20041;-75
2023/12/12 01:03:55;;;;;;;95.40;31.13;;;;;;;-144.73;100.00;54740.22;4973683;28;20037;-75
2023/12/12 01:06:25;;;;;;;90.10;29.77;;;;;;;-144.73;100.00;54717.66;4977410;28;20022;-75
2023/12/12 01:08:51;;;;;;;105.85;31.13;;;;;;;-144.73;100.00;54748.44;4985901;28;20104;-75
2023/12/12 01:11:17;;;;;;;114.95;33.72;;;;;;;-144.73;100.00;54703.28;4979245;28;20493;-75
2023/12/12 01:13:48;;;;;;;138.43;34.72;;;;;;;-144.73;100.00;54736.13;4978185;28;20526;-75
2023/12/12 01:16:13;;;;;;;179.48;39.75;;;;;;;-144.73;100.00;54723.81;4982930;28;20066;-75
2023/12/12 01:18:38;;;;;;;141.35;36.90;;;;;;;-144.73;100.00;54732.00;4976324;28;20054;-75
2023/12/12 01:21:04;;;;;;;133.60;36.15;;;;;;;-144.73;100.00;54742.28;4978218;28;20029;-76
2023/12/12 01:23:54;;;;;;;129.13;34.92;;;;;;;-144.73;100.00;54711.47;4979164;28;20035;-74
2023/12/12 01:26:21;;;;;;;166.45;37.17;;;;;;;-144.73;100.00;54742.28;4965358;28;20034;-76
2023/12/12 01:28:47;;;;;;;180.63;41.05;;;;;;;-144.73;100.00;54748.44;4977780;28;20120;-76
2023/12/12 01:31:14;;;;;;;196.32;40.05;;;;;;;-144.73;100.00;54711.47;4981939;28;20072;-76
2023/12/12 01:33:39;;;;;;;240.93;42.80;;;;;;;-144.73;100.00;54715.59;4977010;28;20093;-76
2023/12/12 01:36:08;;;;;;;236.90;43.72;;;;;;;-144.73;100.00;54707.38;4985441;28;20038;-76
2023/12/12 01:38:33;;;;;;;215.55;42.28;;;;;;;-144.73;100.00;54748.44;4977725;28;20039;-75
2023/12/12 01:40:59;;;;;;;298.90;44.78;;;;;;;-144.73;100.00;54740.22;4980609;28;20034;-75
2023/12/12 01:43:28;;;;;;;327.20;46.17;;;;;;;-144.73;100.00;54740.22;4979934;28;20065;-74
2023/12/12 01:45:55;;;;;;;294.02;43.75;;;;;;;-144.73;100.00;54719.69;4981227;28;20026;-75
2023/12/12 01:48:22;;;;;;;359.17;48.45;;;;;;;-144.73;100.00;54736.13;4984220;28;20039;-75
2023/12/12 01:50:49;;;;;;;372.52;50.35;;;;;;;-144.73;100.00;54736.13;4978548;28;20054;-75
2023/12/12 01:53:18;;;;;;;468.15;50.05;;;;;;;-144.73;100.00;54707.38;4979830;28;20062;-75
2023/12/12 01:55:44;;;;;;;331.80;41.83;;;;;;;-144.73;100.00;54752.53;4974612;28;20049;-75
2023/12/12 01:58:11;;;;;;;430.45;48.88;;;;;;;-144.73;100.00;54690.97;4976598;28;20034;-75
2023/12/12 02:00:37;;;;;;;482.92;51.35;;;;;;;-144.73;100.00;54732.00;4980878;28;20121;-75
2023/12/12 02:03:02;;;;;;;311.30;39.67;;;;;;;-144.73;100.00;54736.13;4976097;28;20138;-75
2023/12/12 02:05:28;;;;;;;350.08;37.75;;;;;;;-144.73;100.00;54756.66;4974048;28;20033;-75
2023/12/12 02:07:54;;;;;;;439.25;48.40;;;;;;;-144.73;100.00;54719.69;4978552;28;20042;-75
2023/12/12 02:10:19;;;;;;;348.48;40.35;;;;;;;-144.73;100.00;54742.28;4971144;28;20031;-75
2023/12/12 02:12:45;;;;;;;415.83;41.63;;;;;;;-144.73;100.00;54711.47;4982774;28;20065;-75
2023/12/12 02:15:10;;;;;;;255.88;35.38;;;;;;;-144.73;100.00;54740.22;4977686;28;20031;-75
2023/12/12 02:17:36;;;;;;;285.92;38.17;;;;;;;-144.73;100.00;54717.66;4974912;28;20038;-76
2023/12/12 02:20:01;;;;;;;339.40;42.00;;;;;;;-144.73;100.00;54781.28;4972811;28;20035;-75
2023/12/12 02:22:26;;;;;;;303.77;38.95;;;;;;;-144.73;100.00;54744.31;4978359;28;20046;-74
2023/12/12 02:24:52;;;;;;;318.70;39.35;;;;;;;-144.73;100.00;54750.50;4977526;28;20125;-75
2023/12/12 02:27:18;;;;;;;408.80;43.40;;;;;;;-144.73;100.00;54752.53;4971114;28;20039;-75
2023/12/12 02:29:44;;;;;;;332.25;41.88;;;;;;;-144.73;100.00;54744.31;4979057;28;20035;-75
2023/12/12 02:32:09;;;;;;;520.05;48.28;;;;;;;-144.73;100.00;54727.91;4975924;28;20041;-75
2023/12/12 02:34:34;;;;;;;465.90;44.35;;;;;;;-144.73;100.00;54719.69;4980379;28;20034;-75
2023/12/12 02:37:00;;;;;;;481.35;46.17;;;;;;;-144.73;100.00;54744.31;4972236;28;20508;-75
2023/12/12 02:39:25;;;;;;;261.55;36.83;;;;;;;-144.73;100.00;54764.84;4980689;28;20036;-75
2023/12/12 02:41:51;;;;;;;611.70;52.83;;;;;;;-144.73;100.00;54715.59;4979774;28;20450;-75
2023/12/12 02:44:16;;;;;;;510.95;49.78;;;;;;;-144.73;100.00;54771.00;4983003;28;20045;-75
2023/12/12 02:46:41;;;;;;;552.05;51.75;;;;;;;-144.73;100.00;54715.59;4981601;28;20548;-75
2023/12/12 02:49:07;;;;;;;290.52;39.90;;;;;;;-144.73;100.00;54752.53;4977474;28;20027;-76
2023/12/12 02:51:32;;;;;;;514.13;49.05;;;;;;;-144.73;100.00;54744.31;4977363;28;20072;-76
2023/12/12 02:53:58;;;;;;;422.95;43.55;;;;;;;-144.73;100.00;54703.28;4974995;28;20035;-75
2023/12/12 02:56:23;;;;;;;530.00;49.92;;;;;;;-144.73;100.00;54740.22;4985560;28;20117;-75
2023/12/12 02:58:48;;;;;;;575.08;53.58;;;;;;;-144.73;100.00;54773.06;4977929;28;20106;-75
2023/12/12 03:01:14;;;;;;;523.70;52.10;;;;;;;-144.73;100.00;54752.53;4980275;28;20050;-76
2023/12/12 03:03:39;;;;;;;650.28;54.90;;;;;;;-144.73;100.00;54736.13;4978660;28;20042;-75
2023/12/12 03:06:07;;;;;;;469.73;49.45;;;;;;;-144.73;100.00;54752.53;4978129;28;20022;-75
2023/12/12 03:08:32;;;;;;;470.60;46.20;;;;;;;-144.73;100.00;54748.44;4976893;28;20031;-76
2023/12/12 03:10:58;;;;;;;713.90;62.95;;;;;;;-144.73;100.00;54732.00;4975234;28;20038;-75
2023/12/12 03:13:23;;;;;;;325.45;42.45;;;;;;;-144.73;100.00;54758.69;4976639;28;20038;-77
2023/12/12 03:15:49;;;;;;;343.08;43.47;;;;;;;-144.73;100.00;54756.66;4981135;28;20037;-75
2023/12/12 03:18:14;;;;;;;335.45;44.30;;;;;;;-144.73;100.00;54719.69;4984908;28;20040;-75
2023/12/12 03:20:39;;;;;;;327.58;44.38;;;;;;;-144.73;100.00;54746.38;4982812;28;20034;-75
2023/12/12 03:23:05;;;;;;;452.45;48.15;;;;;;;-144.73;100.00;54705.31;4975591;28;20046;-75
2023/12/12 03:25:30;;;;;;;453.40;46.97;;;;;;;-144.73;100.00;54699.16;4985657;28;20030;-75
2023/12/12 03:27:58;;;;;;;669.78;59.22;;;;;;;-144.73;100.00;54719.69;4979320;28;20058;-75
2023/12/12 03:30:26;;;;;;;510.30;50.88;;;;;;;-144.73;100.00;54727.91;4981128;28;20186;-75
2023/12/12 03:32:52;;;;;;;712.00;59.35;;;;;;;-144.73;100.00;54732.00;4977681;28;20046;-76
2023/12/12 03:35:17;;;;;;;823.72;67.22;;;;;;;-144.73;100.00;54748.44;4981057;28;20041;-76
2023/12/12 03:37:46;;;;;;;627.05;55.15;;;;;;;-144.73;100.00;54748.44;4980525;28;20046;-75
2023/12/12 03:40:11;;;;;;;569.17;53.60;;;;;;;-144.73;100.00;54736.13;4981435;28;20037;-76
2023/12/12 03:42:37;;;;;;;614.70;52.67;;;;;;;-144.73;100.00;54777.16;4982142;28;20125;-73
2023/12/12 03:45:02;;;;;;;1025.10;72.95;;;;;;;-144.73;100.00;54723.81;4980100;28;20038;-75
2023/12/12 03:47:28;;;;;;;950.22;67.38;;;;;;;-144.73;100.00;54768.97;4976073;28;20045;-75
2023/12/12 03:49:53;;;;;;;891.53;66.70;;;;;;;-144.73;100.00;54732.00;4978834;28;20872;-77
2023/12/12 03:52:18;;;;;;;404.80;48.47;;;;;;;-144.73;100.00;54709.44;4983088;28;20038;-76
2023/12/12 03:54:44;;;;;;;494.77;52.88;;;;;;;-144.73;100.00;54768.97;4984646;28;20046;-77
2023/12/12 03:57:09;;;;;;;493.30;51.97;;;;;;;-144.73;100.00;54740.22;4981259;28;20035;-77
2023/12/12 03:59:34;;;;;;;408.05;49.10;;;;;;;-144.73;100.00;54756.66;4976806;28;20047;-78
2023/12/12 04:02:00;;;;;;;768.38;60.33;;;;;;;-144.73;100.00;54723.81;4983162;28;20043;-77
2023/12/12 04:04:26;;;;;;;646.40;51.45;;;;;;;-144.73;100.00;54727.91;4974951;28;20395;-74
2023/12/12 04:06:51;;;;;;;464.88;50.13;;;;;;;-144.73;100.00;54736.13;4981770;28;20061;-75
2023/12/12 04:09:16;;;;;;;419.08;47.88;;;;;;;-144.73;100.00;54695.06;4978411;28;20106;-77
2023/12/12 04:11:44;;;;;;;437.77;47.92;;;;;;;-144.73;100.00;54752.53;4985304;28;20027;-75
2023/12/12 04:14:12;;;;;;;514.60;52.15;;;;;;;-144.73;100.00;54752.53;4984595;28;20037;-74
2023/12/12 04:16:39;;;;;;;552.60;49.70;;;;;;;-144.73;100.00;54717.66;4971625;28;20093;-75
2023/12/12 04:19:04;;;;;;;461.42;46.67;;;;;;;-144.73;100.00;54727.91;4982085;28;20025;-75
2023/12/12 04:21:30;;;;;;;460.77;48.60;;;;;;;-144.73;100.00;54752.53;4977248;28;20375;-75
2023/12/12 04:23:55;;;;;;;537.42;52.50;;;;;;;-144.73;100.00;54736.13;4976019;28;20043;-75
2023/12/12 04:26:20;;;;;;;555.17;49.55;;;;;;;-144.73;100.00;54719.69;4982944;28;20117;-75
2023/12/12 04:28:46;;;;;;;591.20;49.45;;;;;;;-144.73;100.00;54748.44;4973475;28;20038;-75
2023/12/12 04:31:14;;;;;;;663.92;57.10;;;;;;;-144.73;100.00;54754.59;4982780;28;20037;-75
2023/12/12 04:33:40;;;;;;;544.58;51.55;;;;;;;-144.73;100.00;54723.81;4975726;28;20042;-75
2023/12/12 04:36:06;;;;;;;610.53;51.78;;;;;;;-144.73;100.00;54732.00;4978297;28;20097;-76
2023/12/12 04:38:33;;;;;;;371.63;44.33;;;;;;;-144.73;100.00;54777.16;4986653;28;20062;-77
2023/12/12 04:41:03;;;;;;;731.63;61.20;;;;;;;-144.73;100.00;54736.13;4982400;28;20128;-75
2023/12/12 04:43:32;;;;;;;487.80;60.20;;;;;;;-144.73;100.00;54744.31;4978220;28;20043;-75
2023/12/12 04:45:57;;;;;;;763.90;86.07;;;;;;;-144.73;100.00;54746.38;4976237;28;20045;-75
2023/12/12 04:48:23;;;;;;;429.70;53.58;;;;;;;-144.73;100.00;54746.38;4986287;28;20039;-75
2023/12/12 04:50:48;;;;;;;773.13;58.72;;;;;;;-144.73;100.00;54727.91;4979201;28;20030;-75
2023/12/12 04:53:13;;;;;;;558.58;55.92;;;;;;;-144.73;100.00;54732.00;4975852;28;20039;-76
2023/12/12 04:55:39;;;;;;;363.73;43.05;;;;;;;-144.73;100.00;54744.31;4984365;28;20450;-76
2023/12/12 04:58:04;;;;;;;201.18;35.67;;;;;;;-144.73;100.00;54736.13;4989209;28;20038;-75
2023/12/12 05:00:30;;;;;;;174.18;35.33;;;;;;;-144.73;100.00;54752.53;4973917;28;20022;-75
2023/12/12 05:02:55;;;;;;;330.95;41.45;;;;;;;-144.73;100.00;54740.22;4983850;28;20043;-75
2023/12/12 05:05:20;;;;;;;427.92;44.70;;;;;;;-144.73;100.00;54727.91;4978672;28;20058;-75
2023/12/12 05:07:46;;;;;;;151.10;33.58;;;;;;;-144.73;100.00;54744.31;4980055;28;20076;-75
2023/12/12 05:10:12;;;;;;;173.77;33.20;;;;;;;-144.73;100.00;54744.31;4980662;28;20038;-75
2023/12/12 05:12:37;;;;;;;185.20;34.60;;;;;;;-144.73;100.00;54777.16;4974362;28;20047;-75
2023/12/12 05:15:04;;;;;;;214.18;35.80;;;;;;;-144.73;100.00;54736.13;4988493;28;20022;-75
2023/12/12 05:17:30;;;;;;;219.85;37.13;;;;;;;-144.73;100.00;54736.13;4981996;28;20042;-75
2023/12/12 05:19:55;;;;;;;271.60;40.15;;;;;;;-144.73;100.00;54732.00;4986210;28;20030;-76
2023/12/12 05:22:28;;;;;;;168.10;33.92;;;;;;;-144.73;100.00;54697.13;4985075;28;20045;-75
2023/12/12 05:24:54;;;;;;;277.67;40.00;;;;;;;-144.73;100.00;54723.81;4979273;28;20034;-76
2023/12/12 05:27:20;;;;;;;302.70;40.63;;;;;;;-144.73;100.00;54740.22;4981785;28;20121;-75
2023/12/12 05:29:46;;;;;;;241.95;37.47;;;;;;;-144.73;100.00;54752.53;4978997;28;20034;-75
2023/12/12 05:32:11;;;;;;;189.38;33.28;;;;;;;-144.73;100.00;54732.00;4980778;28;20045;-75
2023/12/12 05:34:40;;;;;;;294.52;39.08;;;;;;;-144.73;100.00;54752.53;4976249;28;20054;-76
2023/12/12 05:37:08;;;;;;;220.93;36.75;;;;;;;-144.73;100.00;54723.81;4977799;28;20046;-76
2023/12/12 05:39:33;;;;;;;181.88;33.85;;;;;;;-144.73;100.00;54740.22;4977303;28;20406;-75
2023/12/12 05:41:59;;;;;;;252.52;38.97;;;;;;;-144.73;100.00;54756.66;4977110;28;20059;-76
2023/12/12 05:44:24;;;;;;;276.70;37.53;;;;;;;-144.73;100.00;54732.00;4979401;28;20392;-76
2023/12/12 05:46:50;;;;;;;255.43;37.70;;;;;;;-144.73;100.00;54723.81;4984205;28;20053;-76
2023/12/12 05:49:16;;;;;;;203.20;35.42;;;;;;;-144.73;100.00;54732.00;4988794;28;20065;-76
2023/12/12 05:51:41;;;;;;;175.93;33.78;;;;;;;-144.73;100.00;54744.31;4973279;28;20072;-76
2023/12/12 05:54:13;;;;;;;181.75;33.80;;;;;;;-144.73;100.00;54732.00;4980338;28;20062;-75
2023/12/12 05:56:39;;;;;;;226.38;39.65;;;;;;;-144.73;100.00;54707.38;4979244;28;20050;-78
2023/12/12 05:59:05;;;;;;;109.45;27.83;;;;;;;-144.73;100.00;54750.50;4984665;28;20030;-76
2023/12/12 06:01:31;;;;;;;110.93;28.13;;;;;;;-144.73;100.00;54742.28;4978680;28;20023;-76
2023/12/12 06:03:56;;;;;;;133.82;29.33;;;;;;;-144.73;100.00;54713.53;4979202;28;20041;-76
2023/12/12 06:06:22;;;;;;;118.75;29.23;;;;;;;-144.73;100.00;54768.97;4985155;28;20054;-76
2023/12/12 06:08:47;;;;;;;141.95;30.90;;;;;;;-144.73;100.00;54699.16;4978620;28;20034;-75
2023/12/12 06:11:12;;;;;;;129.60;27.95;;;;;;;-144.73;100.00;54732.00;4980769;28;20080;-75
2023/12/12 06:13:38;;;;;;;125.07;28.92;;;;;;;-144.73;100.00;54785.38;4978621;28;20070;-75
2023/12/12 06:16:03;;;;;;;146.60;29.95;;;;;;;-144.73;100.00;54732.00;4977088;28;20477;-75
2023/12/12 06:18:29;;;;;;;129.60;32.03;;;;;;;-144.73;100.00;54725.84;4979850;28;20049;-75
2023/12/12 06:20:54;;;;;;;168.02;36.28;;;;;;;-144.73;100.00;54711.47;4978524;28;20062;-75
2023/12/12 06:23:19;;;;;;;183.43;34.28;;;;;;;-144.73;100.00;54768.97;4978540;28;20110;-76
2023/12/12 06:25:46;;;;;;;166.80;35.30;;;;;;;-144.73;100.00;54744.31;4978963;28;20037;-74
2023/12/12 06:28:11;;;;;;;178.85;35.78;;;;;;;-144.73;100.00;54740.22;4983745;28;20038;-74
2023/12/12 06:30:36;;;;;;;198.75;35.00;;;;;;;-144.73;100.00;54736.13;4983701;28;20045;-74
2023/12/12 06:33:02;;;;;;;213.02;33.13;;;;;;;-144.73;100.00;54711.47;4973803;28;20053;-75
2023/12/12 06:35:27;;;;;;;215.80;36.40;;;;;;;-144.73;100.00;54744.31;4981930;28;20038;-75
2023/12/12 06:37:53;;;;;;;214.32;36.78;;;;;;;-144.73;100.00;54752.53;4979707;28;20050;-75
2023/12/12 06:40:18;;;;;;;165.73;31.42;;;;;;;-144.73;100.00;54754.59;4981922;28;20034;-75
2023/12/12 06:42:44;;;;;;;140.75;30.92;;;;;;;-144.73;100.00;54729.97;4975239;28;20050;-74
2023/12/12 06:45:13;;;;;;;115.65;28.52;;;;;;;-144.73;100.00;54686.84;4979978;28;20044;-74
2023/12/12 06:47:38;;;;;;;154.88;31.40;;;;;;;-144.73;100.00;54736.13;4986238;28;20042;-74
2023/12/12 06:50:04;;;;;;;181.80;35.78;;;;;;;-144.73;100.00;54748.44;4983315;28;20069;-73
2023/12/12 06:52:30;;;;;;;173.05;36.08;;;;;;;-144.73;100.00;54756.66;4983581;28;20121;-74
2023/12/12 06:54:55;;;;;;;169.75;34.92;;;;;;;-144.73;100.00;54744.31;4982989;28;20101;-74
2023/12/12 06:57:21;;;;;;;193.75;39.53;;;;;;;-144.73;100.00;54711.47;4978548;28;20038;-74
2023/12/12 06:59:46;;;;;;;261.05;42.97;;;;;;;-144.73;100.00;54736.13;4982661;28;20035;-74
2023/12/12 07:02:11;;;;;;;250.23;38.78;;;;;;;-144.73;100.00;54740.22;4987753;28;20105;-74
2023/12/12 07:04:38;;;;;;;204.40;36.92;;;;;;;-144.73;100.00;54748.44;4987284;28;20035;-74
2023/12/12 07:07:03;;;;;;;244.30;39.42;;;;;;;-144.73;100.00;54715.59;4973694;28;20085;-74
2023/12/12 07:09:28;;;;;;;210.70;38.45;;;;;;;-144.73;100.00;54695.06;4984564;28;20038;-74
2023/12/12 07:11:54;;;;;;;118.75;30.67;;;;;;;-144.73;100.00;54715.59;4977642;28;20130;-74
2023/12/12 07:14:20;;;;;;;238.50;40.40;;;;;;;-144.73;100.00;54729.97;4978134;28;20089;-74
2023/12/12 07:16:45;;;;;;;181.38;35.95;;;;;;;-144.73;100.00;54707.38;4981718;28;20054;-74
2023/12/12 07:19:10;;;;;;;249.43;40.47;;;;;;;-144.73;100.00;54748.44;4989129;28;20456;-74
2023/12/12 07:21:41;;;;;;;200.50;37.08;;;;;;;-144.73;100.00;54740.22;4976123;28;20034;-75
2023/12/12 07:24:07;;;;;;;196.27;37.40;;;;;;;-144.73;100.00;54736.13;5001294;28;20037;-75
2023/12/12 07:26:33;;;;;;;206.23;38.97;;;;;;;-144.73;100.00;54695.06;4980824;28;20026;-75
2023/12/12 07:28:58;;;;;;;268.17;40.90;;;;;;;-144.73;100.00;54744.31;4980163;28;20034;-75
2023/12/12 07:31:24;;;;;;;202.00;36.40;;;;;;;-144.73;100.00;54707.38;4976596;28;20026;-75
2023/12/12 07:33:50;;;;;;;211.80;37.13;;;;;;;-144.73;100.00;54740.22;4982480;28;20038;-75
2023/12/12 07:36:15;;;;;;;212.50;37.72;;;;;;;-144.73;100.00;54723.81;4981975;28;20037;-75
2023/12/12 07:38:41;;;;;;;191.75;34.20;;;;;;;-144.73;100.00;54727.91;4976909;28;20115;-75
2023/12/12 07:41:07;;;;;;;238.55;37.92;;;;;;;-144.73;100.00;54764.84;4983293;28;20084;-75
2023/12/12 07:43:32;;;;;;;197.80;38.10;;;;;;;-144.73;100.00;54703.28;4981907;28;20178;-75
2023/12/12 07:45:57;;;;;;;183.20;35.03;;;;;;;-144.73;100.00;54695.06;4974589;28;20035;-71
2023/12/12 07:48:23;;;;;;;229.95;40.50;;;;;;;-144.73;100.00;54744.31;4992915;28;20042;-71
2023/12/12 07:50:48;;;;;;;224.02;38.05;;;;;;;-144.73;100.00;54748.44;4981638;28;20041;-70
2023/12/12 07:53:13;;;;;;;158.18;35.28;;;;;;;-144.73;100.00;54703.28;4986008;28;20042;-71
2023/12/12 07:55:39;;;;;;;163.00;36.03;;;;;;;-144.73;100.00;54732.00;4990828;28;20045;-70
2023/12/12 07:58:04;;;;;;;216.63;39.42;;;;;;;-144.73;100.00;54758.69;4977786;28;20042;-71
2023/12/12 08:00:29;;;;;;;161.93;35.38;;;;;;;-144.73;100.00;54740.22;4974684;28;20039;-71
2023/12/12 08:02:55;;;;;;;170.48;39.20;;;;;;;-144.73;100.00;54756.66;4979697;28;20054;-71
2023/12/12 08:05:20;;;;;;;163.07;35.95;;;;;;;-144.73;100.00;54723.81;4979573;28;20074;-71
2023/12/12 08:07:46;;;;;;;156.52;35.63;;;;;;;-144.73;100.00;54738.16;4972471;28;20045;-72
2023/12/12 08:10:11;;;;;;;183.20;37.60;;;;;;;-144.73;100.00;54705.31;4974400;28;20042;-71
2023/12/12 08:12:36;;;;;;;148.60;38.95;;;;;;;-144.73;100.00;54701.22;4982349;28;20573;-71
2023/12/12 08:15:03;;;;;;;178.18;37.35;;;;;;;-144.73;100.00;54711.47;4986494;28;20517;-70
2023/12/12 08:17:28;;;;;;;151.52;37.90;;;;;;;-144.73;100.00;54748.44;4971887;28;20253;-71
2023/12/12 08:19:54;;;;;;;184.70;40.42;;;;;;;-144.73;100.00;54736.13;4986967;28;20125;-70
2023/12/12 08:22:19;;;;;;;183.98;38.08;;;;;;;-144.73;100.00;54703.28;4978472;28;20078;-71
2023/12/12 08:24:50;;;;;;;225.73;41.65;;;;;;;-144.73;100.00;54732.00;4972349;28;20062;-71
2023/12/12 08:27:16;;;;;;;198.13;34.05;;;;;;;-144.73;100.00;54715.59;4977026;28;20038;-70
2023/12/12 08:29:41;;;;;;;193.38;38.05;;;;;;;-144.73;100.00;54764.84;4971100;28;20030;-70
2023/12/12 08:32:06;;;;;;;225.93;40.30;;;;;;;-144.73;100.00;54727.91;4969855;28;20089;-70
2023/12/12 08:34:33;;;;;;;176.63;35.97;;;;;;;-144.73;100.00;54760.75;4970781;28;20089;-70
2023/12/12 08:36:59;;;;;;;203.02;40.25;;;;;;;-144.73;100.00;54750.50;4984751;28;20038;-71
2023/12/12 08:39:25;;;;;;;153.85;33.85;;;;;;;-144.73;100.00;54732.00;4976239;28;20038;-71
2023/12/12 08:41:50;;;;;;;150.68;34.58;;;;;;;-144.73;100.00;54773.06;4981393;28;20031;-72
2023/12/12 08:44:15;;;;;;;166.20;37.17;;;;;;;-144.73;100.00;54756.66;4974803;28;20026;-72
2023/12/12 08:46:43;;;;;;;145.98;37.00;;;;;;;-144.73;100.00;54723.81;4977604;28;20057;-72
2023/12/12 08:49:09;;;;;;;154.15;35.75;;;;;;;-144.73;100.00;54707.38;4969338;28;20022;-70
2023/12/12 08:51:34;;;;;;;140.93;36.85;;;;;;;-144.73;100.00;54727.91;4987854;28;20037;-70
2023/12/12 08:54:02;;;;;;;142.23;35.35;;;;;;;-144.73;100.00;54695.06;4989129;28;20035;-70
2023/12/12 08:56:28;;;;;;;126.32;33.75;;;;;;;-144.73;100.00;54756.66;4989211;28;20022;-70
2023/12/12 08:58:54;;;;;;;136.75;35.55;;;;;;;-144.73;100.00;54744.31;4976363;28;20042;-70
2023/12/12 09:01:19;;;;;;;158.95;37.88;;;;;;;-144.73;100.00;54736.13;4986081;28;20040;-73
2023/12/12 09:03:45;;;;;;;144.98;40.80;;;;;;;-144.73;100.00;54748.44;4975082;28;20036;-73
2023/12/12 09:06:11;;;;;;;140.10;38.97;;;;;;;-144.73;100.00;54773.06;4976078;28;20077;-73
2023/12/12 09:08:41;;;;;;;148.88;42.38;;;;;;;-144.73;100.00;54742.28;4975462;28;20031;-72
2023/12/12 09:11:08;;;;;;;147.68;40.75;;;;;;;-144.73;100.00;54713.53;4977821;28;20023;-71
2023/12/12 09:13:33;;;;;;;161.38;43.67;;;;;;;-144.73;100.00;54719.69;4969645;28;20035;-71
2023/12/12 09:15:59;;;;;;;131.10;39.28;;;;;;;-144.73;100.00;54773.06;4971740;28;20086;-71
2023/12/12 09:18:25;;;;;;;149.95;43.03;;;;;;;-144.73;100.00;54762.81;4978409;28;20110;-70
2023/12/12 09:20:50;;;;;;;161.88;46.03;;;;;;;-144.73;100.00;54727.91;4984514;28;20034;-71
2023/12/12 09:23:16;;;;;;;158.10;44.78;;;;;;;-144.73;100.00;54738.16;4979196;28;20091;-72
2023/12/12 09:25:42;;;;;;;170.82;45.85;;;;;;;-144.73;100.00;54725.84;4981952;28;20045;-71
2023/12/12 09:28:07;;;;;;;153.95;43.55;;;;;;;-144.73;100.00;54744.31;4970102;28;20451;-71
2023/12/12 09:30:32;;;;;;;142.27;41.40;;;;;;;-144.73;100.00;54723.81;4975459;28;20077;-70
2023/12/12 09:32:58;;;;;;;129.15;39.70;;;;;;;-144.73;100.00;54736.13;4975097;28;20030;-71
2023/12/12 09:35:24;;;;;;;152.55;44.33;;;;;;;-144.73;100.00;54695.06;4975098;28;20023;-71
2023/12/12 09:37:50;;;;;;;125.05;38.28;;;;;;;-144.73;100.00;54740.22;4983829;28;20053;-70
2023/12/12 09:40:15;;;;;;;107.45;37.83;;;;;;;-144.73;100.00;54736.13;4983682;28;20030;-72
2023/12/12 09:42:41;;;;;;;108.03;35.72;;;;;;;-144.73;100.00;54732.00;4976706;28;20043;-70
2023/12/12 09:45:16;;;;;;;105.57;34.67;;;;;;;-144.73;100.00;54727.91;4976947;28;20023;-70
2023/12/12 09:47:45;;;;;;;118.68;36.00;;;;;;;-144.73;100.00;54693.00;4992248;28;20041;-71
2023/12/12 09:50:12;;;;;;;96.55;32.33;;;;;;;-144.73;100.00;54729.97;4972429;28;20023;-71
2023/12/12 09:52:38;;;;;;;87.57;29.63;;;;;;;-144.73;100.00;54740.22;4976070;28;20038;-71
2023/12/12 09:55:04;;;;;;;109.00;35.55;;;;;;;-144.73;100.00;54748.44;4971125;28;20394;-71
2023/12/12 09:57:30;;;;;;;88.63;28.45;;;;;;;-144.73;100.00;54732.00;4984916;28;20081;-71
2023/12/12 09:59:58;;;;;;;89.15;29.17;;;;;;;-144.73;100.00;54742.28;4975663;28;20030;-71
2023/12/12 10:02:27;;;;;;;86.03;30.77;;;;;;;-144.73;100.00;54748.44;4980913;28;20038;-72
2023/12/12 10:04:53;;;;;;;100.18;32.17;;;;;;;-144.73;100.00;54711.47;4971257;28;20026;-70
2023/12/12 10:07:19;;;;;;;81.38;29.75;;;;;;;-144.73;100.00;54740.22;4977804;28;20157;-70
2023/12/12 10:09:48;;;;;;;83.65;28.95;;;;;;;-144.73;100.00;54744.31;4972288;28;20034;-71
2023/12/12 10:12:13;;;;;;;77.05;28.48;;;;;;;-144.73;100.00;54748.44;4977662;28;20037;-71
2023/12/12 10:14:40;;;;;;;93.10;32.50;;;;;;;-144.73;100.00;54736.13;4972054;28;20034;-70
2023/12/12 10:17:10;;;;;;;90.90;31.02;;;;;;;-144.73;100.00;54732.00;4979340;28;20038;-71
2023/12/12 10:19:36;;;;;;;82.70;29.45;;;;;;;-144.73;100.00;54752.53;4984928;28;20084;-71
2023/12/12 10:22:09;;;;;;;80.70;30.35;;;;;;;-144.73;100.00;54727.91;4986992;28;20042;-70
2023/12/12 10:24:35;;;;;;;81.40;29.20;;;;;;;-144.73;100.00;54736.13;4988507;28;20081;-71
2023/12/12 10:27:01;;;;;;;79.53;31.27;;;;;;;-144.73;100.00;54744.31;4971664;28;20406;-70
2023/12/12 10:29:27;;;;;;;88.25;32.67;;;;;;;-144.73;100.00;54711.47;4992268;28;20141;-70
2023/12/12 10:31:53;;;;;;;76.10;28.45;;;;;;;-144.73;100.00;54707.38;4987009;28;20521;-70
2023/12/12 10:34:20;;;;;;;89.30;32.55;;;;;;;-144.73;100.00;54736.13;4984268;28;20026;-70
2023/12/12 10:36:48;;;;;;;81.65;31.15;;;;;;;-144.73;100.00;54719.69;4980355;28;20044;-70
2023/12/12 10:39:15;;;;;;;86.53;33.75;;;;;;;-144.73;100.00;54715.59;4974818;28;20097;-70
2023/12/12 10:41:50;;;;;;;79.13;32.25;;;;;;;-144.73;100.00;54727.91;4973653;28;20031;-70